Terminal Aerodrome Forecast
Issued by NWS Boise, ID

Home | Current Version | Previous Version | Text Only | Print | Product List | Glossary On
Versions: 1 2 3 4 5 6 7 8 9 10 11 12 13 14 15 16 17 18 19 20 21 22 23 24 25 26
338
FTUS45 KBOI 191909 AAA
TAFBNO
TAF AMD
KBNO 191909Z 1919/2018 17015G22KT P6SM SKC
     FM200500 22015G25KT P6SM -RA SCT035 BKN050
     FM200800 25015G25KT P6SM -RA OVC040
     FM201100 29015G25KT P6SM -SHRA BKN050=

USA.gov is the U.S. government's official web portal to all federal, state and local government web resources and services.